createdAt,value
2018-09-16T00:01:26.724Z,1.80
2018-09-16T00:03:54.413Z,2.47
2018-09-16T00:06:22.050Z,2.23
2018-09-16T00:08:49.638Z,1.63
2018-09-16T00:11:17.322Z,1.60
2018-09-16T00:13:45.282Z,1.70
2018-09-16T00:16:12.966Z,1.70
2018-09-16T00:18:40.626Z,1.37
2018-09-16T00:21:08.362Z,1.93
2018-09-16T00:23:36.063Z,2.10
2018-09-16T00:26:03.716Z,2.00
2018-09-16T00:28:31.426Z,1.80
2018-09-16T00:30:59.028Z,1.83
2018-09-16T00:33:26.715Z,2.03
2018-09-16T00:35:54.394Z,1.50
2018-09-16T00:38:22.052Z,2.07
2018-09-16T00:40:49.688Z,2.20
2018-09-16T00:43:17.363Z,2.00
2018-09-16T00:45:45.044Z,1.40
2018-09-16T00:48:12.723Z,1.60
2018-09-16T00:50:40.397Z,1.67
2018-09-16T00:53:07.974Z,1.90
2018-09-16T00:55:35.702Z,1.97
2018-09-16T00:58:03.377Z,1.97
2018-09-16T01:00:31.102Z,1.80
2018-09-16T01:02:58.695Z,1.70
2018-09-16T01:05:26.290Z,1.60
2018-09-16T01:07:53.978Z,1.73
2018-09-16T01:10:21.666Z,1.37
2018-09-16T01:12:49.278Z,1.67
2018-09-16T01:15:16.902Z,1.93
2018-09-16T01:17:44.546Z,1.83
2018-09-16T01:20:12.175Z,1.50
2018-09-16T01:22:39.814Z,1.37
2018-09-16T01:25:07.407Z,2.03
2018-09-16T01:27:35.014Z,1.57
2018-09-16T01:30:02.771Z,1.60
2018-09-16T01:32:30.478Z,1.90
2018-09-16T01:34:58.113Z,1.83
2018-09-16T01:37:31.451Z,2.00
2018-09-16T01:40:02.263Z,2.00
2018-09-16T01:42:29.925Z,1.60
2018-09-16T01:45:01.374Z,2.23
2018-09-16T01:47:29.022Z,1.23
2018-09-16T01:49:56.651Z,1.80
2018-09-16T01:52:24.304Z,2.00
2018-09-16T01:54:51.994Z,2.23
2018-09-16T01:57:19.646Z,1.40
2018-09-16T01:59:47.314Z,1.93
2018-09-16T02:02:15.031Z,1.60
2018-09-16T02:04:42.670Z,2.70
2018-09-16T02:07:11.838Z,1.50
2018-09-16T02:09:39.573Z,1.77
2018-09-16T02:12:07.511Z,1.70
2018-09-16T02:14:35.162Z,2.00
2018-09-16T02:17:02.871Z,1.77
2018-09-16T02:19:30.488Z,2.27
2018-09-16T02:21:58.042Z,1.90
2018-09-16T02:24:25.705Z,1.87
2018-09-16T02:26:53.286Z,1.57
2018-09-16T02:29:20.926Z,2.57
2018-09-16T02:31:48.602Z,1.90
2018-09-16T02:34:16.317Z,1.30
2018-09-16T02:36:43.980Z,2.10
2018-09-16T02:39:11.622Z,2.13
2018-09-16T02:41:39.231Z,1.83
2018-09-16T02:44:06.952Z,2.50
2018-09-16T02:46:35.742Z,2.10
2018-09-16T02:49:03.401Z,1.90
2018-09-16T02:51:31.102Z,2.23
2018-09-16T02:53:59.037Z,1.60
2018-09-16T02:56:26.623Z,1.60
2018-09-16T02:58:55.203Z,1.77
2018-09-16T03:01:22.982Z,1.90
2018-09-16T03:03:54.299Z,2.40
2018-09-16T03:06:30.798Z,1.83
2018-09-16T03:08:58.590Z,2.10
2018-09-16T03:11:30.472Z,1.93
2018-09-16T03:13:58.014Z,2.40
2018-09-16T03:16:25.603Z,2.47
2018-09-16T03:18:53.312Z,2.30
2018-09-16T03:21:20.860Z,2.30
2018-09-16T03:23:48.623Z,2.67
2018-09-16T03:26:16.242Z,2.90
2018-09-16T03:28:43.910Z,1.67
2018-09-16T03:31:11.522Z,2.57
2018-09-16T03:33:39.097Z,1.80
2018-09-16T03:36:06.885Z,2.30
2018-09-16T03:38:34.675Z,1.90
2018-09-16T03:41:02.402Z,2.90
2018-09-16T03:43:30.049Z,2.03
2018-09-16T03:45:57.670Z,2.20
2018-09-16T03:48:25.310Z,2.60
2018-09-16T03:50:53.080Z,2.60
2018-09-16T03:53:20.644Z,2.08
2018-09-16T03:55:48.274Z,2.27
2018-09-16T03:58:16.898Z,2.47
2018-09-16T04:00:44.566Z,1.70
2018-09-16T04:03:12.191Z,1.87
2018-09-16T04:05:39.838Z,1.87
2018-09-16T04:08:07.494Z,2.40
2018-09-16T04:10:38.302Z,1.85
2018-09-16T04:13:05.862Z,1.90
2018-09-16T04:15:33.528Z,2.60
2018-09-16T04:18:01.197Z,1.52
2018-09-16T04:20:28.850Z,2.43
2018-09-16T04:22:56.450Z,2.02
2018-09-16T04:25:24.102Z,1.70
2018-09-16T04:27:51.815Z,2.85
2018-09-16T04:30:19.494Z,1.90
2018-09-16T04:32:47.201Z,2.40
2018-09-16T04:35:14.875Z,2.50
2018-09-16T04:37:42.595Z,2.25
2018-09-16T04:40:10.219Z,2.35
2018-09-16T04:42:38.190Z,2.40
2018-09-16T04:45:06.046Z,1.92
2018-09-16T04:47:33.721Z,1.62
2018-09-16T04:50:01.463Z,2.10
2018-09-16T04:52:29.182Z,1.80
2018-09-16T04:54:56.779Z,2.08
2018-09-16T04:57:24.475Z,2.20
2018-09-16T04:59:52.166Z,1.98
2018-09-16T05:02:19.784Z,1.85
2018-09-16T05:04:47.502Z,2.40
2018-09-16T05:07:15.156Z,2.23
2018-09-16T05:09:42.863Z,2.37
2018-09-16T05:12:10.622Z,1.77
2018-09-16T05:14:38.270Z,2.75
2018-09-16T05:17:05.954Z,2.80
2018-09-16T05:19:34.695Z,2.60
2018-09-16T05:22:02.362Z,1.90
2018-09-16T05:24:29.994Z,2.30
2018-09-16T05:26:57.675Z,2.25
2018-09-16T05:29:25.435Z,1.80
2018-09-16T05:31:53.142Z,1.77
2018-09-16T05:34:20.782Z,1.90
2018-09-16T05:36:48.410Z,2.10
2018-09-16T05:39:16.062Z,2.35
2018-09-16T05:41:43.726Z,2.40
2018-09-16T05:44:11.393Z,2.70
2018-09-16T05:46:39.059Z,1.75
2018-09-16T05:49:06.662Z,2.40
2018-09-16T05:51:34.416Z,2.17
2018-09-16T05:54:02.058Z,2.25
2018-09-16T05:56:29.737Z,1.92
2018-09-16T05:58:57.837Z,2.08
2018-09-16T06:01:29.102Z,2.47
2018-09-16T06:03:56.833Z,2.40
2018-09-16T06:06:24.486Z,2.95
2018-09-16T06:08:52.179Z,2.00
2018-09-16T06:11:19.924Z,2.27
2018-09-16T06:13:47.540Z,2.45
2018-09-16T06:16:15.142Z,2.70
2018-09-16T06:18:42.784Z,2.20
2018-09-16T06:21:10.487Z,2.37
2018-09-16T06:23:38.188Z,2.45
2018-09-16T06:26:05.843Z,2.27
2018-09-16T06:28:33.754Z,2.47
2018-09-16T06:31:01.456Z,2.13
2018-09-16T06:33:29.127Z,2.45
2018-09-16T06:35:56.772Z,1.85
2018-09-16T06:38:24.402Z,2.45
2018-09-16T06:40:52.094Z,2.70
2018-09-16T06:43:19.726Z,2.43
2018-09-16T06:45:47.368Z,2.50
2018-09-16T06:48:15.040Z,2.43
2018-09-16T06:50:42.690Z,2.50
2018-09-16T06:53:10.347Z,2.57
2018-09-16T06:55:38.021Z,2.63
2018-09-16T06:58:05.712Z,3.30
2018-09-16T07:00:33.446Z,2.90
2018-09-16T07:03:01.110Z,3.80
2018-09-16T07:05:28.798Z,3.83
2018-09-16T07:07:56.521Z,3.63
2018-09-16T07:10:24.290Z,2.67
2018-09-16T07:12:51.927Z,3.10
2018-09-16T07:15:19.594Z,3.23
2018-09-16T07:17:47.242Z,2.97
2018-09-16T07:20:14.962Z,2.83
2018-09-16T07:22:42.570Z,3.57
2018-09-16T07:25:10.330Z,2.63
2018-09-16T07:27:37.923Z,2.90
2018-09-16T07:32:13.654Z,3.97
2018-09-16T07:34:41.334Z,3.00
2018-09-16T07:37:08.980Z,3.37
2018-09-16T07:39:36.682Z,2.77
2018-09-16T07:42:04.430Z,2.90
2018-09-16T07:44:32.136Z,2.53
2018-09-16T07:46:59.782Z,2.87
2018-09-16T07:49:27.426Z,10.77
2018-09-16T07:51:55.066Z,28.37
2018-09-16T07:54:22.703Z,7.90
2018-09-16T07:56:50.606Z,3.30
2018-09-16T07:59:18.251Z,3.10
2018-09-16T08:01:45.983Z,2.53
2018-09-16T08:04:13.627Z,2.60
2018-09-16T08:06:41.236Z,2.87
2018-09-16T08:09:09.647Z,1.93
2018-09-16T08:11:37.315Z,1.83
2018-09-16T08:14:05.088Z,2.00
2018-09-16T08:16:32.819Z,1.70
2018-09-16T08:19:00.463Z,1.60
2018-09-16T08:21:28.157Z,2.00
2018-09-16T08:23:55.811Z,1.10
2018-09-16T08:26:23.764Z,1.37
2018-09-16T08:28:51.518Z,1.00
2018-09-16T08:31:19.160Z,1.40
2018-09-16T08:33:47.098Z,1.40
2018-09-16T08:36:14.758Z,1.83
2018-09-16T08:38:42.423Z,1.80
2018-09-16T08:41:12.166Z,1.30
2018-09-16T08:43:39.814Z,1.23
2018-09-16T08:46:07.482Z,1.37
2018-09-16T08:48:39.117Z,1.40
2018-09-16T08:51:10.222Z,1.30
2018-09-16T08:53:37.888Z,1.00
2018-09-16T08:56:05.571Z,1.80
2018-09-16T08:58:33.607Z,1.37
2018-09-16T09:01:01.235Z,1.50
2018-09-16T09:03:28.986Z,1.27
2018-09-16T09:05:56.678Z,1.60
2018-09-16T09:08:24.350Z,1.60
2018-09-16T09:10:51.966Z,2.23
2018-09-16T09:13:19.683Z,1.67
2018-09-16T09:15:47.607Z,1.70
2018-09-16T09:18:15.245Z,1.83
2018-09-16T09:20:42.902Z,1.43
2018-09-16T09:23:10.616Z,1.77
2018-09-16T09:25:38.382Z,1.30
2018-09-16T09:28:05.998Z,1.30
2018-09-16T09:30:33.719Z,1.40
2018-09-16T09:33:01.323Z,2.00
2018-09-16T09:35:28.969Z,1.50
2018-09-16T09:37:56.643Z,1.50
2018-09-16T09:40:24.523Z,1.33
2018-09-16T09:42:52.214Z,1.80
2018-09-16T09:45:19.860Z,1.50
2018-09-16T09:47:47.497Z,1.50
2018-09-16T09:50:18.806Z,1.40
2018-09-16T09:52:46.502Z,1.20
2018-09-16T09:55:14.178Z,1.60
2018-09-16T09:57:42.366Z,1.43
2018-09-16T10:00:10.078Z,1.60
2018-09-16T10:02:37.750Z,1.43
2018-09-16T10:05:05.495Z,1.30
2018-09-16T10:07:33.166Z,1.73
2018-09-16T10:10:00.862Z,1.20
2018-09-16T10:12:28.547Z,2.00
2018-09-16T10:14:56.223Z,1.90
2018-09-16T10:17:23.862Z,1.90
2018-09-16T10:19:51.562Z,1.80
2018-09-16T10:22:19.196Z,1.87
2018-09-16T10:24:46.854Z,1.87
2018-09-16T10:27:15.518Z,1.53
2018-09-16T10:29:43.179Z,1.33
2018-09-16T10:32:10.856Z,1.77
2018-09-16T10:34:38.528Z,1.17
2018-09-16T10:37:06.158Z,1.40
2018-09-16T10:39:33.811Z,1.10
2018-09-16T10:42:01.437Z,1.13
2018-09-16T10:44:29.239Z,1.67
2018-09-16T10:46:56.908Z,1.57
2018-09-16T10:49:24.576Z,1.60
2018-09-16T10:51:52.211Z,1.43
2018-09-16T10:54:19.946Z,1.80
2018-09-16T10:56:47.583Z,1.87
2018-09-16T10:59:15.179Z,1.20
2018-09-16T11:01:42.822Z,1.40
2018-09-16T11:04:10.526Z,1.20
2018-09-16T11:06:38.231Z,1.80
2018-09-16T11:09:07.703Z,1.50
2018-09-16T11:11:35.351Z,1.70
2018-09-16T11:14:03.072Z,1.60
2018-09-16T11:16:30.677Z,1.50
2018-09-16T11:18:58.338Z,1.20
2018-09-16T11:21:25.970Z,1.33
2018-09-16T11:23:53.630Z,1.10
2018-09-16T11:26:21.314Z,1.10
2018-09-16T11:28:48.986Z,1.50
2018-09-16T11:31:16.610Z,1.40
2018-09-16T11:33:44.283Z,1.30
2018-09-16T11:36:11.970Z,1.97
2018-09-16T11:38:39.592Z,1.50
2018-09-16T11:41:07.298Z,1.83
2018-09-16T11:43:34.990Z,1.53
2018-09-16T11:46:02.639Z,1.80
2018-09-16T11:48:30.329Z,2.17
2018-09-16T11:50:58.023Z,1.90
2018-09-16T11:53:25.762Z,1.80
2018-09-16T11:55:53.502Z,1.80
2018-09-16T11:58:21.135Z,1.50
2018-09-16T12:00:48.796Z,1.43
2018-09-16T12:03:16.388Z,2.20
2018-09-16T12:05:44.095Z,1.50
2018-09-16T12:08:11.766Z,2.20
2018-09-16T12:10:39.450Z,2.10
2018-09-16T12:13:07.182Z,1.73
2018-09-16T12:15:34.810Z,1.60
2018-09-16T12:18:02.572Z,1.83
2018-09-16T12:20:30.210Z,1.53
2018-09-16T12:22:57.903Z,1.40
2018-09-16T12:25:25.495Z,1.70
2018-09-16T12:27:53.168Z,1.40
2018-09-16T12:30:20.803Z,1.83
2018-09-16T12:32:48.487Z,1.77
2018-09-16T12:35:16.153Z,2.00
2018-09-16T12:37:43.851Z,2.50
2018-09-16T12:40:11.517Z,1.77
2018-09-16T12:42:39.258Z,1.80
2018-09-16T12:45:06.890Z,1.70
2018-09-16T12:47:34.582Z,1.93
2018-09-16T12:50:02.264Z,1.83
2018-09-16T12:52:29.902Z,2.50
2018-09-16T12:54:57.636Z,2.03
2018-09-16T12:57:25.287Z,2.00
2018-09-16T12:59:52.939Z,2.03
2018-09-16T13:02:20.534Z,2.10
2018-09-16T13:04:48.170Z,2.50
2018-09-16T13:07:15.899Z,2.03
2018-09-16T13:09:43.566Z,1.93
2018-09-16T13:12:11.143Z,2.20
2018-09-16T13:14:39.010Z,2.03
2018-09-16T13:17:07.715Z,1.90
2018-09-16T13:19:35.339Z,2.40
2018-09-16T13:22:02.935Z,2.13
2018-09-16T13:24:30.642Z,2.10
2018-09-16T13:26:58.343Z,2.23
2018-09-16T13:29:25.973Z,1.93
2018-09-16T13:31:53.821Z,2.03
2018-09-16T13:34:21.414Z,2.30
2018-09-16T13:36:49.111Z,1.67
2018-09-16T13:39:16.718Z,1.87
2018-09-16T13:41:44.371Z,2.50
2018-09-16T13:44:12.514Z,2.50
2018-09-16T13:46:40.142Z,2.23
2018-09-16T13:49:07.855Z,2.40
2018-09-16T13:51:35.571Z,2.23
2018-09-16T13:54:03.323Z,2.23
2018-09-16T13:56:31.053Z,2.10
2018-09-16T13:58:58.710Z,2.43
2018-09-16T14:01:26.327Z,2.63
2018-09-16T14:03:53.991Z,2.00
2018-09-16T14:06:21.603Z,1.80
2018-09-16T14:08:49.319Z,2.30
2018-09-16T14:11:16.970Z,2.07
2018-09-16T14:13:44.596Z,2.23
2018-09-16T14:16:13.192Z,1.97
2018-09-16T14:18:41.098Z,1.80
2018-09-16T14:21:08.747Z,2.23
2018-09-16T14:23:36.367Z,2.90
2018-09-16T14:26:04.070Z,1.70
2018-09-16T14:28:31.719Z,1.90
2018-09-16T14:30:59.430Z,2.27
2018-09-16T14:33:27.098Z,1.80
2018-09-16T14:35:54.849Z,2.40
2018-09-16T14:38:22.483Z,2.10
2018-09-16T14:40:50.110Z,2.40
2018-09-16T14:43:17.742Z,2.07
2018-09-16T14:45:45.418Z,1.40
2018-09-16T14:48:13.156Z,2.50
2018-09-16T14:50:40.783Z,1.60
2018-09-16T14:53:08.398Z,1.60
2018-09-16T14:55:36.014Z,1.80
2018-09-16T14:58:03.670Z,1.60
2018-09-16T15:00:31.334Z,1.70
2018-09-16T15:02:59.987Z,1.77
2018-09-16T15:05:27.707Z,1.30
2018-09-16T15:07:55.807Z,1.70
2018-09-16T15:10:23.474Z,1.63
2018-09-16T15:12:51.127Z,1.90
2018-09-16T15:15:18.809Z,2.13
2018-09-16T15:17:46.423Z,1.97
2018-09-16T15:20:14.034Z,2.37
2018-09-16T15:22:41.699Z,2.80
2018-09-16T15:25:09.334Z,2.20
2018-09-16T15:27:37.006Z,2.23
2018-09-16T15:30:04.915Z,1.30
2018-09-16T15:32:32.414Z,2.10
2018-09-16T15:35:00.122Z,1.63
2018-09-16T15:37:27.741Z,3.07
2018-09-16T15:39:56.406Z,1.90
2018-09-16T15:42:24.100Z,2.17
2018-09-16T15:44:51.735Z,1.50
2018-09-16T15:47:19.437Z,1.70
2018-09-16T15:49:47.030Z,1.47
2018-09-16T15:52:14.642Z,1.53
2018-09-16T15:54:42.306Z,1.80
2018-09-16T15:57:09.942Z,1.47
2018-09-16T16:06:36.371Z,1.50
2018-09-16T16:09:06.992Z,1.30
2018-09-16T16:11:34.356Z,1.60
2018-09-16T16:14:01.702Z,1.60
2018-09-16T16:16:29.174Z,1.83
2018-09-16T16:18:56.485Z,1.70
2018-09-16T16:21:23.821Z,1.50
2018-09-16T16:23:51.214Z,1.43
2018-09-16T16:26:18.577Z,1.43
2018-09-16T16:28:46.082Z,1.60
2018-09-16T16:31:14.481Z,1.67
2018-09-16T16:33:41.836Z,1.73
2018-09-16T16:36:09.213Z,1.73
2018-09-16T16:38:37.595Z,1.80
2018-09-16T16:41:05.033Z,1.70
2018-09-16T16:43:32.409Z,1.67
2018-09-16T16:45:59.795Z,1.63
2018-09-16T16:48:27.189Z,2.07
2018-09-16T16:50:54.533Z,1.70
2018-09-16T16:53:21.884Z,1.97
2018-09-16T16:55:49.259Z,1.63
2018-09-16T16:58:16.609Z,1.77
2018-09-16T17:00:44.070Z,1.77
2018-09-16T17:03:11.387Z,3.00
2018-09-16T17:05:38.794Z,2.27
2018-09-16T17:08:06.181Z,2.63
2018-09-16T17:10:33.528Z,2.33
2018-09-16T17:13:00.907Z,1.87
2018-09-16T17:15:28.319Z,3.00
2018-09-16T17:17:59.013Z,2.47
2018-09-16T17:20:26.384Z,1.80
2018-09-16T17:22:53.815Z,1.90
2018-09-16T17:25:21.214Z,2.30
2018-09-16T17:27:48.746Z,1.70
2018-09-16T17:30:16.488Z,2.00
2018-09-16T17:32:44.213Z,2.23
2018-09-16T17:35:12.041Z,2.20
2018-09-16T17:37:39.846Z,2.23
2018-09-16T17:40:07.645Z,1.90
2018-09-16T17:42:35.354Z,2.30
2018-09-16T17:45:03.301Z,3.27
2018-09-16T17:47:31.350Z,21.00
2018-09-16T17:49:59.196Z,23.37
2018-09-16T17:52:27.122Z,9.20
2018-09-16T17:54:54.903Z,5.30
2018-09-16T17:57:22.579Z,2.60
2018-09-16T17:59:50.471Z,2.30
2018-09-16T18:02:18.142Z,24.70
2018-09-16T18:04:45.782Z,39.50
2018-09-16T18:07:13.598Z,21.15
